Time;durP1;ratioP1;P1;durP2;ratioP2;P2;SDS_P1;SDS_P2;PMS_P1;PMS_P2;Temp;Humidity;BMP_temperature;BMP_pressure;BME280_temperature;BME280_humidity;BME280_pressure;Samples;Min_cycle;Max_cycle;Signal;HPM_P1;HPM_P2
2022/02/19 00:02:07;;;;;;;;;9.00;9.00;;;;;10.01;57.37;98689.22;6286126;20;2741957;-55
2022/02/19 00:04:36;;;;;;;;;4.75;2.25;;;;;10.00;57.59;98682.97;6301029;20;1805680;-52
2022/02/19 00:07:06;;;;;;;;;11.00;9.40;;;;;9.97;57.90;98683.19;6339309;20;2775395;-53
2022/02/19 00:09:34;;;;;;;;;7.00;7.00;;;;;9.93;58.31;98686.25;6284526;20;2740928;-52
2022/02/19 00:12:02;;;;;;;;;12.00;12.00;;;;;9.81;58.51;98680.81;6312952;20;2788878;-53
2022/02/19 00:14:31;;;;;;;;;10.50;10.50;;;;;9.91;58.49;98682.81;6279692;20;2789856;-54
2022/02/19 00:17:03;;;;;;;;;10.25;7.50;;;;;10.00;58.35;98679.44;6325564;20;2475370;-51
2022/02/19 00:19:31;;;;;;;;;11.00;10.50;;;;;9.90;58.81;98687.34;6310863;20;2784647;-56
2022/02/19 00:21:59;;;;;;;;;13.00;11.00;;;;;9.78;59.33;98678.38;6286086;20;2786755;-52
2022/02/19 00:24:28;;;;;;;;;18.33;9.33;;;;;9.75;59.69;98685.78;6282229;20;3533571;-54
2022/02/19 00:26:56;;;;;;;;;13.50;12.00;;;;;9.72;59.74;98684.19;6312648;20;2794005;-55
2022/02/19 00:29:24;;;;;;;;;14.00;12.00;;;;;9.75;59.77;98697.38;6279779;20;2788811;-55
2022/02/19 00:31:52;;;;;;;;;17.33;10.33;;;;;9.78;59.62;98682.88;6282554;20;2806505;-56
2022/02/19 00:34:22;;;;;;;;;14.40;12.80;;;;;9.69;60.00;98671.03;6338027;20;2788794;-53
2022/02/19 00:36:50;;;;;;;;;16.00;11.33;;;;;9.54;60.51;98664.13;6283916;20;2795233;-50
2022/02/19 00:39:18;;;;;;;;;19.00;12.50;;;;;9.61;60.85;98665.34;6317605;20;2804460;-53
2022/02/19 00:41:46;;;;;;;;;10.00;8.00;;;;;9.61;60.87;98657.31;6289727;20;2760749;-50
2022/02/19 00:44:15;;;;;;;;;19.33;13.33;;;;;9.54;61.01;98669.47;6285763;20;2802475;-49
2022/02/19 00:46:43;;;;;;;;;6.00;5.00;;;;;9.35;61.32;98664.63;6320928;20;2747138;-49
2022/02/19 00:49:11;;;;;;;;;13.00;11.00;;;;;9.25;61.91;98667.09;6284555;20;2792006;-50
2022/02/19 00:51:39;;;;;;;;;14.00;12.00;;;;;9.25;61.92;98660.91;6314943;20;2789927;-50
2022/02/19 00:54:07;;;;;;;;;18.00;13.00;;;;;9.24;62.03;98662.69;6289378;20;2799245;-51
2022/02/19 00:56:35;;;;;;;;;14.00;14.00;;;;;9.34;62.49;98666.41;6287770;20;2806629;-53
2022/02/19 00:59:04;;;;;;;;;17.50;10.00;;;;;9.19;62.53;98670.22;6316197;20;2802335;-50
2022/02/19 01:01:32;;;;;;;;;17.00;12.00;;;;;9.13;62.91;98667.97;6284098;20;2804421;-55
2022/02/19 01:04:03;;;;;;;;;9.29;8.29;;;;;9.17;62.88;98664.13;6328122;20;1804652;-50
2022/02/19 01:06:32;;;;;;;;;11.00;10.00;;;;;8.98;63.54;98657.41;6320002;20;2787834;-55
2022/02/19 01:09:00;;;;;;;;;2.50;2.50;;;;;9.16;63.29;98649.88;6307391;20;1817063;-52
2022/02/19 01:11:28;;;;;;;;;12.00;12.00;;;;;9.01;63.61;98661.69;6315742;20;2794027;-55
2022/02/19 01:13:56;;;;;;;;;14.00;10.00;;;;;8.90;63.97;98658.91;6285916;20;2784637;-54
2022/02/19 01:16:25;;;;;;;;;13.33;12.33;;;;;8.99;64.04;98652.91;6285087;20;3513807;-55
2022/02/19 01:18:53;;;;;;;;;12.00;9.00;;;;;8.93;64.39;98656.03;6316410;20;2766929;-54
2022/02/19 01:21:20;;;;;;;;;14.00;9.00;;;;;9.09;63.96;98671.84;6285967;20;2756534;-52
2022/02/19 01:23:49;;;;;;;;;15.33;11.67;;;;;9.06;63.83;98685.44;6287318;20;3536708;-55
2022/02/19 01:26:17;;;;;;;;;15.00;10.00;;;;;8.96;64.12;98679.91;6317506;20;3518987;-54
2022/02/19 01:28:45;;;;;;;;;15.00;12.00;;;;;8.94;64.63;98681.81;6319843;20;2789854;-55
2022/02/19 01:31:14;;;;;;;;;14.33;11.00;;;;;9.04;64.59;98671.31;6283608;20;3510654;-52
2022/02/19 01:33:44;;;;;;;;;13.80;12.60;;;;;8.97;64.60;98658.34;6339165;20;2793090;-51
2022/02/19 01:36:13;;;;;;;;;14.40;11.00;;;;;8.83;65.38;98649.63;6310395;20;2791911;-55
2022/02/19 01:38:41;;;;;;;;;13.00;9.00;;;;;8.99;65.06;98643.06;6284730;20;2754496;-54
2022/02/19 01:41:09;;;;;;;;;11.00;10.00;;;;;8.67;65.96;98641.81;6286432;20;2772190;-56
2022/02/19 01:43:38;;;;;;;;;15.67;12.33;;;;;8.88;65.43;98667.06;6284083;20;2794254;-54
2022/02/19 01:46:06;;;;;;;;;13.50;10.00;;;;;8.85;65.53;98661.09;6315005;20;2783581;-54
2022/02/19 01:48:34;;;;;;;;;10.00;9.00;;;;;8.73;66.51;98670.81;6285311;20;2764951;-53
2022/02/19 01:51:02;;;;;;;;;15.00;14.00;;;;;8.65;66.37;98676.69;6283518;20;2798367;-55
2022/02/19 01:53:31;;;;;;;;;12.00;9.00;;;;;8.79;66.31;98667.69;6286256;20;2774261;-55
2022/02/19 01:56:00;;;;;;;;;17.67;14.33;;;;;8.60;66.77;98667.28;6284862;20;3534648;-54
2022/02/19 01:58:28;;;;;;;;;20.00;12.00;;;;;8.64;66.22;98666.13;6316326;20;2815933;-53
2022/02/19 02:00:57;;;;;;;;;14.40;11.60;;;;;8.63;66.90;98680.44;6307189;20;2788819;-52
2022/02/19 02:03:26;;;;;;;;;17.33;14.00;;;;;8.69;66.79;98670.19;6287233;20;3551268;-50
2022/02/19 02:05:54;;;;;;;;;19.00;15.00;;;;;8.57;66.78;98663.84;6317617;20;2812799;-54
2022/02/19 02:08:22;;;;;;;;;12.00;9.00;;;;;8.59;67.11;98665.59;6284648;20;2760680;-51
2022/02/19 02:10:52;;;;;;;;;12.80;12.80;;;;;8.65;67.12;98676.69;6307702;20;2791087;-53
2022/02/19 02:13:20;;;;;;;;;10.00;9.00;;;;;8.45;67.68;98666.53;6287029;20;2763842;-54
2022/02/19 02:15:54;;;;;;;;;16.00;16.00;;;;;8.46;68.00;98677.13;6283445;20;3547125;-55
2022/02/19 02:18:22;;;;;;;;;18.50;11.00;;;;;8.72;67.52;98672.66;6316926;20;2803463;-52
2022/02/19 02:20:50;;;;;;;;;17.00;12.33;;;;;8.87;67.74;98681.38;6282978;20;2793003;-53
2022/02/19 02:23:21;;;;;;;;;17.67;13.00;;;;;8.69;68.02;98680.00;6314629;20;3519111;-54
2022/02/19 02:25:55;;;;;;;;;14.33;10.67;;;;;8.65;68.32;98665.16;6315964;20;2793008;-52
2022/02/19 02:28:24;;;;;;;;;18.00;13.00;;;;;8.78;68.72;98680.22;6312088;20;3538757;-52
2022/02/19 02:30:51;;;;;;;;;14.00;11.00;;;;;8.86;69.15;98690.41;6312809;20;2793023;-53
2022/02/19 02:33:23;;;;;;;;;12.20;10.00;;;;;8.51;68.71;98695.56;6310609;20;2787876;-55
2022/02/19 02:35:52;;;;;;;;;15.00;14.00;;;;;8.51;68.50;98693.72;6283291;20;3524215;-51
2022/02/19 02:38:22;;;;;;;;;11.00;11.00;;;;;8.45;68.78;98695.94;6315138;20;2784387;-53
2022/02/19 02:40:52;;;;;;;;;16.80;11.20;;;;;8.49;68.83;98695.66;6308686;20;2792005;-54
2022/02/19 02:43:19;;;;;;;;;15.50;12.00;;;;;8.40;69.19;98693.63;6286717;20;2794049;-53
2022/02/19 02:45:48;;;;;;;;;19.00;15.00;;;;;8.60;69.39;98699.41;6283535;20;3538784;-56
2022/02/19 02:48:22;;;;;;;;;21.50;15.00;;;;;8.44;69.05;98704.94;6317667;20;2821659;-50
2022/02/19 02:50:53;;;;;;;;;15.00;14.00;;;;;8.35;69.55;98698.38;6281865;20;2782845;-50
2022/02/19 02:53:40;;;;;;;;;16.50;13.50;;;;;8.39;69.38;98701.69;6313254;20;2799264;-53
2022/02/19 02:56:08;;;;;;;;;10.00;10.00;;;;;8.25;70.18;98716.03;6283279;20;2796184;-54
2022/02/19 02:58:38;;;;;;;;;16.60;12.20;;;;;8.43;69.75;98719.31;6307399;20;2790970;-53
2022/02/19 03:01:08;;;;;;;;;11.50;11.00;;;;;8.32;70.08;98722.66;6285303;20;2777414;-51
2022/02/19 03:03:37;;;;;;;;;17.00;12.00;;;;;8.20;70.61;98718.16;6280114;20;2798219;-55
2022/02/19 03:06:05;;;;;;;;;19.00;13.00;;;;;8.39;70.87;98733.78;6315798;20;2817957;-55
2022/02/19 03:08:33;;;;;;;;;18.50;14.00;;;;;8.55;69.56;98746.03;6284466;20;2802381;-52
2022/02/19 03:11:03;;;;;;;;;13.80;8.80;;;;;8.57;70.11;98764.69;6310069;20;2759781;-54
2022/02/19 03:13:32;;;;;;;;;17.00;13.33;;;;;8.56;69.82;98768.31;6311419;20;2808722;-51
2022/02/19 03:15:59;;;;;;;;;15.00;13.00;;;;;8.59;70.14;98777.97;6316281;20;2794047;-51
2022/02/19 03:18:28;;;;;;;;;15.33;12.67;;;;;8.67;69.99;98773.78;6281690;20;3521288;-54
2022/02/19 03:20:56;;;;;;;;;17.00;13.50;;;;;8.73;70.62;98801.94;6314870;20;2803378;-50
2022/02/19 03:23:25;;;;;;;;;12.33;10.33;;;;;8.90;70.09;98801.66;6284488;20;2782576;-53
2022/02/19 03:25:52;;;;;;;;;12.50;9.00;;;;;8.88;70.82;98816.13;6315352;20;2762760;-54
2022/02/19 03:28:24;;;;;;;;;12.71;10.14;;;;;8.99;69.96;98825.09;6327142;20;1808619;-50
2022/02/19 03:30:51;;;;;;;;;13.50;10.00;;;;;8.88;70.45;98838.38;6311767;20;2794033;-52
2022/02/19 03:33:19;;;;;;;;;17.50;15.00;;;;;8.86;70.12;98831.41;6282601;20;2813944;-52
2022/02/19 03:35:47;;;;;;;;;11.00;11.00;;;;;8.72;70.98;98837.72;6281971;20;2782632;-55
2022/02/19 03:38:15;;;;;;;;;13.50;13.50;;;;;8.79;70.67;98839.00;6285932;20;2804447;-54
2022/02/19 03:40:44;;;;;;;;;15.67;12.67;;;;;8.60;70.96;98844.72;6282137;20;2795106;-50
2022/02/19 03:43:12;;;;;;;;;13.00;12.50;;;;;8.52;70.93;98847.91;6316267;20;2806626;-55
2022/02/19 03:45:41;;;;;;;;;14.00;11.50;;;;;8.45;71.07;98841.28;6281091;20;2782558;-52
2022/02/19 03:48:11;;;;;;;;;18.20;13.20;;;;;8.58;71.27;98852.00;6305903;20;2809632;-52
2022/02/19 03:50:39;;;;;;;;;17.00;15.00;;;;;8.85;70.22;98860.00;6284255;20;2803373;-51
2022/02/19 03:53:07;;;;;;;;;11.50;11.50;;;;;8.99;70.19;98869.78;6282595;20;2779518;-54
2022/02/19 03:55:36;;;;;;;;;15.67;14.00;;;;;8.92;71.14;98865.78;6283795;20;2810750;-52
2022/02/19 03:58:03;;;;;;;;;20.00;15.50;;;;;9.02;70.21;98866.88;6315228;20;2824390;-50
2022/02/19 04:00:32;;;;;;;;;18.00;15.00;;;;;9.07;70.04;98869.25;6280740;20;3562879;-55
2022/02/19 04:03:00;;;;;;;;;19.00;15.00;;;;;9.17;70.26;98875.69;6313271;20;2806559;-54
2022/02/19 04:05:28;;;;;;;;;18.33;14.33;;;;;8.88;70.78;98875.84;6279508;20;3539999;-54
2022/02/19 04:07:57;;;;;;;;;18.00;16.33;;;;;9.07;70.80;98874.59;6280047;20;3542983;-51
2022/02/19 04:10:25;;;;;;;;;18.00;14.00;;;;;9.17;70.27;98881.06;6316028;20;2576326;-54
2022/02/19 04:12:53;;;;;;;;;12.33;11.67;;;;;9.20;70.51;98884.34;6306876;20;2782533;-53
2022/02/19 04:15:23;;;;;;;;;16.60;13.80;;;;;8.98;71.16;98879.63;6337114;20;2812895;-51
2022/02/19 04:17:52;;;;;;;;;16.00;13.00;;;;;9.13;71.40;98892.91;6280232;20;3522192;-50
2022/02/19 04:20:20;;;;;;;;;16.67;16.33;;;;;9.14;71.18;98897.34;6310221;20;3549278;-49
2022/02/19 04:22:49;;;;;;;;;18.67;15.00;;;;;9.28;71.04;98901.72;6311996;20;3558559;-49
2022/02/19 04:25:17;;;;;;;;;19.33;15.67;;;;;9.35;70.68;98901.22;6312087;20;3549349;-49
2022/02/19 04:27:45;;;;;;;;;15.50;13.00;;;;;9.28;70.89;98905.25;6281858;20;2811708;-49
2022/02/19 04:30:13;;;;;;;;;16.00;15.00;;;;;9.33;70.83;98896.91;6282579;20;2806591;-51
2022/02/19 04:32:42;;;;;;;;;22.67;18.00;;;;;9.24;71.42;98898.38;6279099;20;3562754;-51
2022/02/19 04:35:10;;;;;;;;;16.50;16.50;;;;;9.39;70.79;98900.00;6284623;20;2812779;-49
2022/02/19 04:37:38;;;;;;;;;15.00;15.00;;;;;9.33;71.55;98895.09;6284008;20;2811763;-49
2022/02/19 04:40:11;;;;;;;;;17.33;14.67;;;;;9.12;71.82;98905.47;6277377;20;3535671;-50
2022/02/19 04:42:40;;;;;;;;;19.00;16.50;;;;;9.24;71.61;98906.44;6312539;20;2814949;-52
2022/02/19 04:45:10;;;;;;;;;21.50;16.00;;;;;9.20;71.70;98907.63;6281637;20;2832573;-52
2022/02/19 04:47:39;;;;;;;;;17.33;17.33;;;;;9.27;71.58;98905.34;6281663;20;3556480;-49
2022/02/19 04:50:10;;;;;;;;;18.00;16.33;;;;;9.26;71.89;98901.81;6279372;20;3552385;-49
2022/02/19 04:52:39;;;;;;;;;17.00;14.00;;;;;9.37;71.24;98906.44;6310379;20;3538787;-50
2022/02/19 04:55:08;;;;;;;;;19.00;16.00;;;;;9.41;70.89;98911.50;6315671;20;2824208;-51
2022/02/19 04:57:43;;;;;;;;;16.33;15.00;;;;;9.14;71.96;98910.72;6279053;20;3547221;-49
2022/02/19 05:00:17;;;;;;;;;20.00;18.33;;;;;9.30;71.99;98911.38;6279716;20;3577356;-50
2022/02/19 05:02:47;;;;;;;;;13.60;12.60;;;;;9.30;71.94;98916.75;6305585;20;2796096;-54
2022/02/19 05:05:15;;;;;;;;;19.00;15.00;;;;;9.25;71.94;98921.56;6280310;20;3541910;-54
2022/02/19 05:07:44;;;;;;;;;21.67;17.67;;;;;9.46;71.28;98929.94;6311629;20;3558658;-54
2022/02/19 05:10:13;;;;;;;;;16.33;12.67;;;;;9.50;71.41;98927.88;6309546;20;3551304;-54
2022/02/19 05:12:41;;;;;;;;;21.67;17.67;;;;;9.32;71.84;98936.25;6310263;20;3564861;-55
2022/02/19 05:15:12;;;;;;;;;19.50;18.50;;;;;9.48;71.09;98936.06;6308584;20;2823317;-54
2022/02/19 05:17:53;;;;;;;;;18.00;16.00;;;;;9.30;72.01;98938.16;6277782;20;2496118;-54
2022/02/19 05:20:23;;;;;;;;;19.00;17.50;;;;;9.19;71.95;98946.94;6281133;20;2814245;-55
2022/02/19 05:22:52;;;;;;;;;19.67;17.00;;;;;9.13;72.04;98957.19;6281797;20;3571212;-53
2022/02/19 05:25:20;;;;;;;;;18.50;18.00;;;;;8.97;72.30;98952.00;6320569;20;2820061;-55
2022/02/19 05:27:48;;;;;;;;;17.00;15.00;;;;;9.18;71.74;98957.75;6294427;20;2695034;-54
2022/02/19 05:30:16;;;;;;;;;16.33;13.67;;;;;9.15;72.21;98963.31;6314147;20;3538795;-54
2022/02/19 05:32:45;;;;;;;;;17.00;17.00;;;;;8.95;73.40;98978.91;6314181;20;3545553;-53
2022/02/19 05:35:13;;;;;;;;;18.00;14.00;;;;;8.99;72.75;98980.41;6320919;20;2820138;-54
2022/02/19 05:37:41;;;;;;;;;24.00;19.00;;;;;9.04;72.65;98987.28;6287393;20;2834681;-55
2022/02/19 05:40:10;;;;;;;;;26.00;20.00;;;;;9.22;72.37;98991.41;6284504;20;3578370;-54
2022/02/19 05:42:39;;;;;;;;;23.67;20.00;;;;;9.07;72.50;98997.78;6294595;20;3580514;-54
2022/02/19 05:45:08;;;;;;;;;25.00;17.00;;;;;9.08;72.60;98999.47;6283379;20;2835652;-54
2022/02/19 05:47:37;;;;;;;;;25.00;20.00;;;;;9.06;73.30;99012.09;6283983;20;2848162;-52
2022/02/19 05:50:07;;;;;;;;;22.00;17.50;;;;;9.11;73.08;99015.34;6280957;20;2491969;-54
2022/02/19 05:52:36;;;;;;;;;26.00;19.50;;;;;9.05;73.37;99021.13;6282388;20;2837738;-52
2022/02/19 05:55:06;;;;;;;;;26.50;24.00;;;;;9.18;72.50;99022.88;6283587;20;2846076;-51
2022/02/19 05:57:41;;;;;;;;;19.67;19.00;;;;;9.21;72.74;99028.00;6283722;20;3562736;-51
2022/02/19 06:00:12;;;;;;;;;18.67;17.00;;;;;8.94;73.31;99036.06;6283645;20;3541069;-51
2022/02/19 06:02:40;;;;;;;;;19.33;17.33;;;;;9.27;72.08;99048.22;6280093;20;3552607;-53
2022/02/19 06:05:09;;;;;;;;;19.67;16.67;;;;;8.83;72.81;99049.28;6282334;20;3553506;-54
2022/02/19 06:07:37;;;;;;;;;19.50;17.50;;;;;9.18;71.79;99059.50;6279866;20;2500245;-55
2022/02/19 06:10:05;;;;;;;;;22.00;22.00;;;;;9.06;71.93;99071.03;6281935;20;2496125;-53
2022/02/19 06:12:34;;;;;;;;;20.00;18.50;;;;;8.82;73.02;99079.72;6282370;20;2500330;-50
2022/02/19 06:15:03;;;;;;;;;25.50;22.00;;;;;8.97;72.75;99076.00;6284622;20;2839904;-54
2022/02/19 06:17:31;;;;;;;;;24.50;19.50;;;;;9.24;72.02;99085.88;6284971;20;2835697;-50
2022/02/19 06:20:00;;;;;;;;;26.00;20.50;;;;;9.18;71.80;99092.50;6283026;20;2832630;-56
2022/02/19 06:22:28;;;;;;;;;26.00;21.00;;;;;9.30;71.37;99090.84;6281018;20;2500714;-55
2022/02/19 06:24:56;;;;;;;;;26.00;19.00;;;;;9.20;71.32;99092.41;6280198;20;2496107;-53
2022/02/19 06:27:25;;;;;;;;;16.33;14.00;;;;;9.49;70.14;99095.00;6284923;20;3546061;-52
2022/02/19 06:29:52;;;;;;;;;27.00;20.00;;;;;9.57;69.56;99108.75;6315173;20;2841940;-51
2022/02/19 06:32:22;;;;;;;;;13.80;13.40;;;;;9.45;69.91;99116.66;6307848;20;2803516;-52
2022/02/19 06:34:51;;;;;;;;;17.33;12.67;;;;;9.69;69.23;99121.34;6283735;20;3525271;-54
2022/02/19 06:37:19;;;;;;;;;15.00;14.00;;;;;9.87;68.74;99132.63;6317722;20;2796190;-54
2022/02/19 06:39:47;;;;;;;;;19.00;18.50;;;;;10.06;68.41;99142.97;6282975;20;2496103;-50
2022/02/19 06:42:16;;;;;;;;;56.50;43.00;;;;;9.87;69.24;99154.06;6284420;20;2661834;-54
2022/02/19 06:44:44;;;;;;;;;24.50;21.00;;;;;9.92;69.16;99146.56;6315138;20;2834699;-50
2022/02/19 06:47:13;;;;;;;;;19.50;14.00;;;;;9.79;68.98;99146.53;6284111;20;3431650;-51
2022/02/19 06:49:41;;;;;;;;;12.00;12.00;;;;;9.95;68.99;99151.72;6310987;20;2789895;-48
2022/02/19 06:52:09;;;;;;;;;13.50;11.00;;;;;10.01;67.18;99156.69;6289107;20;2792067;-53
2022/02/19 06:54:37;;;;;;;;;11.00;10.50;;;;;10.01;65.46;99155.84;6285089;20;2782595;-51
2022/02/19 06:57:05;;;;;;;;;14.50;10.50;;;;;9.96;65.07;99166.03;6284891;20;2784656;-49
2022/02/19 06:59:33;;;;;;;;;13.00;9.50;;;;;10.15;64.14;99168.31;6283881;20;2773198;-54
2022/02/19 07:02:01;;;;;;;;;12.00;8.00;;;;;10.19;61.96;99170.69;6283819;20;2760772;-53
2022/02/19 07:04:30;;;;;;;;;13.60;13.00;;;;;10.39;61.30;99172.00;6309257;20;2789867;-53
2022/02/19 07:06:59;;;;;;;;;14.00;9.67;;;;;10.27;59.90;99184.47;6282750;20;2784854;-50
2022/02/19 07:09:27;;;;;;;;;8.50;7.00;;;;;10.52;59.68;99190.81;6317001;20;2733600;-50
2022/02/19 07:11:56;;;;;;;;;11.60;10.40;;;;;10.48;58.63;99192.00;6309311;20;2785792;-52
2022/02/19 07:14:25;;;;;;;;;9.50;8.00;;;;;10.77;57.97;99203.41;6285131;20;2755590;-53
2022/02/19 07:17:04;;;;;;;;;4.00;4.00;;;;;10.72;56.71;99206.41;6284992;20;2750407;-54
2022/02/19 07:19:34;;;;;;;;;6.00;4.50;;;;;10.64;56.48;99206.06;6283142;20;2756530;-55
2022/02/19 07:22:04;;;;;;;;;6.00;5.00;;;;;10.68;56.21;99209.41;6300742;20;1788818;-53
2022/02/19 07:24:32;;;;;;;;;4.00;4.00;;;;;10.57;56.22;99220.88;6316954;20;2753448;-55
2022/02/19 07:27:00;;;;;;;;;6.50;4.00;;;;;10.68;55.96;99233.56;6286260;20;2744030;-54
2022/02/19 07:29:28;;;;;;;;;4.00;4.00;;;;;10.78;55.23;99242.69;6300094;20;1811319;-50
2022/02/19 07:31:56;;;;;;;;;4.00;2.00;;;;;10.80;55.11;99237.22;6317621;20;2752521;-55
2022/02/19 07:34:24;;;;;;;;;6.50;4.00;;;;;10.95;54.53;99244.19;6295764;20;1819560;-52
2022/02/19 07:36:52;;;;;;;;;3.50;3.50;;;;;11.22;53.64;99252.16;6317477;20;2771112;-55
2022/02/19 07:39:20;;;;;;;;;4.00;3.00;;;;;11.28;53.89;99258.91;6284007;20;2732574;-53
2022/02/19 07:41:50;;;;;;;;;3.00;3.00;;;;;11.29;53.05;99255.25;6287028;20;2737761;-55
2022/02/19 07:44:19;;;;;;;;;2.00;2.00;;;;;11.33;52.16;99262.97;6300604;20;1811861;-54
2022/02/19 07:46:47;;;;;;;;;2.00;2.00;;;;;11.25;52.17;99267.19;6315181;20;2738812;-50
2022/02/19 08:00:21;;;;;;;;;4.00;4.00;;;;;11.46;51.92;99295.22;6312390;20;2748205;-51
2022/02/19 08:02:48;;;;;;;;;5.50;3.00;;;;;11.60;52.14;99305.84;6285874;20;2747131;-51
2022/02/19 08:05:16;;;;;;;;;2.00;2.00;;;;;11.05;51.98;99315.13;6284986;20;2749299;-51
2022/02/19 08:07:45;;;;;;;;;0.25;0.25;;;;;10.96;49.98;99308.56;6299053;20;1799299;-54
2022/02/19 08:10:13;;;;;;;;;2.50;2.00;;;;;11.48;50.50;99321.97;6313276;20;2739886;-54
2022/02/19 08:12:40;;;;;;;;;0.50;0.50;;;;;11.05;49.89;99325.88;6286863;20;2735667;-50
2022/02/19 08:15:09;;;;;;;;;6.00;5.00;;;;;11.10;49.54;99330.94;6283768;20;2744092;-51
2022/02/19 08:17:37;;;;;;;;;0.25;0.25;;;;;10.97;49.06;99333.59;6304996;20;1807664;-54
2022/02/19 08:20:07;;;;;;;;;0.50;0.50;;;;;11.18;48.56;99332.09;6331047;20;1805564;-53
2022/02/19 08:22:36;;;;;;;;;1.00;1.00;;;;;10.95;48.58;99341.78;6332712;20;1809738;-56
2022/02/19 08:25:05;;;;;;;;;2.50;0.00;;;;;10.82;48.04;99340.91;6333584;20;1807353;-51
2022/02/19 08:27:38;;;;;;;;;3.00;1.00;;;;;10.82;48.03;99329.28;6315063;20;2734718;-56
2022/02/19 08:30:08;;;;;;;;;0.25;0.00;;;;;10.87;48.04;99344.09;6298695;20;1814569;-55
2022/02/19 08:32:37;;;;;;;;;3.00;0.00;;;;;11.12;47.78;99345.13;6331517;20;1798276;-55
2022/02/19 08:35:07;;;;;;;;;2.00;1.00;;;;;11.21;48.86;99357.91;6328448;20;1802448;-54
2022/02/19 08:37:36;;;;;;;;;0.50;0.50;;;;;10.70;48.22;99337.22;6331865;20;1809847;-55
2022/02/19 08:40:11;;;;;;;;;2.00;1.00;;;;;10.92;48.01;99335.72;6332062;20;1803464;-51
2022/02/19 08:42:41;;;;;;;;;0.00;0.00;;;;;10.69;47.15;99329.25;6332316;20;1800735;-52
2022/02/19 08:45:10;;;;;;;;;0.50;0.00;;;;;10.61;47.02;99339.63;6330635;20;1803465;-54
2022/02/19 08:47:44;;;;;;;;;0.75;0.75;;;;;10.87;46.68;99332.50;6332606;20;1804440;-51
2022/02/19 08:50:14;;;;;;;;;7.50;1.00;;;;;10.65;46.55;99339.34;6311286;20;2732628;-52
2022/02/19 08:52:50;;;;;;;;;3.00;3.00;;;;;10.70;46.54;99349.78;6281512;20;2751429;-54
2022/02/19 08:55:18;;;;;;;;;14.00;8.50;;;;;10.60;46.28;99335.25;6279575;20;2766936;-53
2022/02/19 08:57:47;;;;;;;;;2.00;1.25;;;;;10.95;46.02;99348.94;6304022;20;1808716;-53
2022/02/19 09:00:15;;;;;;;;;2.00;2.00;;;;;11.13;45.78;99352.19;6319827;20;2739896;-53
2022/02/19 09:02:44;;;;;;;;;4.00;1.25;;;;;11.04;46.04;99352.84;6304860;20;1804528;-55
2022/02/19 09:05:15;;;;;;;;;1.50;1.00;;;;;11.42;45.64;99361.78;6322157;20;2739946;-52
2022/02/19 09:07:44;;;;;;;;;5.00;4.00;;;;;11.48;45.94;99363.19;6288946;20;2750280;-56
2022/02/19 09:10:17;;;;;;;;;17.80;11.60;;;;;11.35;46.41;99370.41;6305028;20;2801349;-54
2022/02/19 09:12:49;;;;;;;;;9.00;5.50;;;;;11.44;46.55;99369.75;6288974;20;2752361;-52
2022/02/19 09:15:22;;;;;;;;;4.00;4.00;;;;;11.47;46.93;99369.53;6286724;20;2736879;-54
2022/02/19 09:17:51;;;;;;;;;8.00;6.00;;;;;11.43;46.88;99378.78;6294229;20;2639830;-51
2022/02/19 09:20:21;;;;;;;;;13.50;9.00;;;;;11.70;46.67;99385.88;6285326;20;2769022;-54
2022/02/19 09:22:50;;;;;;;;;7.00;4.50;;;;;11.51;46.96;99389.84;6291306;20;2754413;-54
2022/02/19 09:25:19;;;;;;;;;3.25;0.75;;;;;11.56;46.81;99394.91;6306161;20;1800341;-53
2022/02/19 09:27:49;;;;;;;;;7.00;3.00;;;;;11.68;46.88;99393.19;6321703;20;2739971;-52
2022/02/19 09:30:16;;;;;;;;;2.00;2.00;;;;;11.76;46.73;99406.94;6288603;20;2738812;-48
2022/02/19 09:32:45;;;;;;;;;1.00;1.00;;;;;11.50;46.76;99400.72;6307872;20;1802472;-46
2022/02/19 09:35:14;;;;;;;;;1.25;1.25;;;;;11.69;46.36;99411.91;6336724;20;1802555;-47
2022/02/19 09:37:42;;;;;;;;;3.50;1.00;;;;;11.24;45.99;99405.19;6323308;20;2733581;-50
2022/02/19 09:40:12;;;;;;;;;0.00;0.00;;;;;11.09;45.83;99408.00;6302701;20;1799253;-46
2022/02/19 09:42:41;;;;;;;;;1.75;1.00;;;;;11.20;45.68;99424.22;6337099;20;1802500;-49
2022/02/19 09:45:47;;;;;;;;;1.25;1.00;;;;;11.42;45.59;99428.97;6336400;20;1806038;-47
2022/02/19 09:48:18;;;;;;;;;4.00;4.00;;;;;11.19;45.08;99427.03;6322499;20;2756493;-45
2022/02/19 09:50:48;;;;;;;;;1.50;1.50;;;;;11.26;44.54;99424.78;6291417;20;2734633;-49
2022/02/19 09:53:17;;;;;;;;;4.00;1.00;;;;;11.17;45.00;99432.50;6306856;20;1804508;-50
2022/02/19 09:55:45;;;;;;;;;3.00;2.00;;;;;11.23;45.13;99433.91;6317533;20;2754535;-46
2022/02/19 09:58:12;;;;;;;;;5.00;3.50;;;;;11.26;44.90;99433.69;6292169;20;2752337;-45
2022/02/19 10:00:47;;;;;;;;;4.00;1.00;;;;;11.24;45.01;99427.56;6288779;20;2735652;-46
2022/02/19 10:03:22;;;;;;;;;2.00;2.00;;;;;11.47;45.30;99423.28;6307281;20;1807647;-46
2022/02/19 10:05:54;;;;;;;;;3.00;2.00;;;;;11.58;44.37;99422.53;6336824;20;1794571;-46
2022/02/19 10:08:22;;;;;;;;;1.50;1.00;;;;;11.34;44.84;99427.78;6335547;20;1807078;-49
2022/02/19 10:10:55;;;;;;;;;2.00;2.00;;;;;11.56;46.45;99425.34;6335824;20;1811896;-45
2022/02/19 10:13:36;;;;;;;;;6.00;4.00;;;;;11.73;45.04;99434.91;6317536;20;2754456;-45
2022/02/19 10:16:09;;;;;;;;;11.00;8.00;;;;;11.51;45.05;99437.41;6280504;20;2759662;-46
2022/02/19 10:18:44;;;;;;;;;19.50;15.00;;;;;11.34;45.29;99454.66;6287594;20;2822149;-46
2022/02/19 10:21:26;;;;;;;;;3.00;2.50;;;;;11.47;45.62;99466.31;6288536;20;2744118;-46
2022/02/19 10:23:56;;;;;;;;;5.00;4.00;;;;;11.57;45.56;99463.84;6284426;20;2747291;-45
2022/02/19 10:26:34;;;;;;;;;12.00;9.00;;;;;11.24;46.08;99475.94;6285251;20;2760824;-47
2022/02/19 10:29:07;;;;;;;;;3.00;1.50;;;;;11.41;45.83;99466.75;6286732;20;2748300;-45
2022/02/19 10:31:36;;;;;;;;;2.00;1.00;;;;;11.20;46.88;99472.59;6304589;20;1802431;-47
2022/02/19 10:34:08;;;;;;;;;4.50;2.50;;;;;11.52;46.66;99472.22;6320060;20;2744048;-47
2022/02/19 10:36:56;;;;;;;;;4.00;4.00;;;;;11.41;45.97;99478.34;6286345;20;2756498;-45
2022/02/19 10:39:32;;;;;;;;;1.25;1.00;;;;;11.29;46.14;99475.63;6302294;20;1803454;-46
2022/02/19 10:42:08;;;;;;;;;1.00;1.00;;;;;11.51;46.40;99477.72;6336280;20;1809320;-45
2022/02/19 10:44:38;;;;;;;;;1.00;1.00;;;;;11.38;46.67;99480.38;6331336;20;1803505;-47
2022/02/19 10:47:28;;;;;;;;;1.00;1.00;;;;;11.28;45.68;99487.34;6335618;20;1808086;-47
2022/02/19 10:50:20;;;;;;;;;1.00;0.00;;;;;11.14;46.02;99478.41;6332329;20;1807776;-45
2022/02/19 10:53:08;;;;;;;;;5.00;5.00;;;;;11.45;45.65;99478.97;6315458;20;2746225;-46
2022/02/19 10:55:37;;;;;;;;;3.50;2.00;;;;;11.39;45.63;99484.78;6284272;20;2753408;-46
2022/02/19 10:58:06;;;;;;;;;1.00;1.00;;;;;11.51;45.35;99502.78;6300930;20;1800339;-45
2022/02/19 11:00:36;;;;;;;;;4.00;2.00;;;;;11.63;45.11;99493.84;6315743;20;2752572;-46
2022/02/19 11:03:06;;;;;;;;;2.50;2.50;;;;;11.85;44.57;99500.44;6287027;20;2750466;-46
2022/02/19 11:05:34;;;;;;;;;1.00;1.00;;;;;11.62;44.32;99496.66;6286062;20;2447168;-54
2022/02/19 11:08:03;;;;;;;;;1.00;1.00;;;;;11.71;44.03;99512.16;6283968;20;2731514;-53
2022/02/19 11:10:33;;;;;;;;;3.33;1.00;;;;;11.86;43.63;99516.50;6302860;20;1803973;-52
2022/02/19 11:13:03;;;;;;;;;4.00;2.00;;;;;11.48;44.32;99502.09;6315327;20;2756581;-54
2022/02/19 11:15:31;;;;;;;;;3.00;1.00;;;;;11.65;43.80;99502.69;6283827;20;2733624;-57
2022/02/19 11:18:00;;;;;;;;;1.00;1.00;;;;;11.58;44.03;99511.28;6300512;20;1803574;-53
2022/02/19 11:20:28;;;;;;;;;1.00;1.00;;;;;11.68;44.22;99506.13;6335002;20;1800365;-52
2022/02/19 11:22:57;;;;;;;;;2.00;2.00;;;;;11.79;44.28;99506.25;6320301;20;2754411;-55
2022/02/19 11:25:27;;;;;;;;;1.00;1.00;;;;;11.54;44.00;99507.94;6304079;20;1805547;-51
2022/02/19 11:28:11;;;;;;;;;4.00;2.00;;;;;11.70;43.94;99505.06;6317098;20;2754518;-47
2022/02/19 11:30:54;;;;;;;;;5.80;1.20;;;;;11.71;44.14;99505.91;6309583;20;2731526;-47
2022/02/19 11:33:25;;;;;;;;;5.00;2.00;;;;;11.75;44.92;99510.97;6319148;20;2750246;-47
2022/02/19 11:36:00;;;;;;;;;3.00;2.00;;;;;11.74;43.99;99511.06;6298486;20;1804505;-51